createdAt,value
2018-03-16T00:02:48.185Z,65.50
2018-03-16T00:18:43.007Z,67.70
2018-03-16T00:23:51.267Z,68.20
2018-03-16T00:28:55.276Z,68.90
2018-03-16T00:33:58.667Z,68.90
2018-03-16T00:39:01.284Z,68.90
2018-03-16T00:44:03.911Z,68.50
2018-03-16T00:49:07.156Z,68.00
2018-03-16T00:54:09.760Z,67.50
2018-03-16T00:59:12.378Z,67.90
2018-03-16T01:04:15.007Z,69.30
2018-03-16T01:09:23.763Z,67.80
2018-03-16T01:14:27.660Z,67.80
2018-03-16T01:19:31.041Z,67.80
2018-03-16T01:24:34.088Z,67.80
2018-03-16T01:29:37.288Z,66.50
2018-03-16T01:34:39.919Z,66.80
2018-03-16T01:39:43.313Z,65.20
2018-03-16T01:44:49.910Z,64.10
2018-03-16T01:49:53.349Z,63.80
2018-03-16T01:54:56.726Z,63.70
2018-03-16T01:59:59.409Z,63.60
2018-03-16T02:05:02.418Z,63.60
2018-03-16T02:10:05.052Z,63.30
2018-03-16T02:15:08.292Z,64.00
2018-03-16T02:20:11.598Z,65.10
2018-03-16T02:25:14.994Z,65.20
2018-03-16T02:30:17.632Z,65.20
2018-03-16T02:35:21.407Z,65.30
2018-03-16T02:40:24.032Z,66.00
2018-03-16T02:45:27.400Z,66.20
2018-03-16T02:50:31.605Z,66.30
2018-03-16T03:00:43.262Z,66.50
2018-03-16T03:05:45.900Z,66.50
2018-03-16T03:10:48.506Z,64.80
2018-03-16T03:15:51.118Z,63.70
2018-03-16T03:20:53.739Z,65.60
2018-03-16T03:25:57.756Z,66.30
2018-03-16T03:31:01.143Z,67.50
2018-03-16T03:36:03.912Z,67.50
2018-03-16T03:41:07.054Z,67.00
2018-03-16T03:46:10.349Z,67.90
2018-03-16T03:51:13.484Z,67.10
2018-03-16T03:56:16.374Z,68.20
2018-03-16T04:01:18.982Z,68.30
2018-03-16T04:06:21.611Z,68.50
2018-03-16T04:11:24.255Z,69.00
2018-03-16T04:16:27.445Z,69.40
2018-03-16T04:21:30.067Z,68.60
2018-03-16T04:26:34.357Z,68.50
2018-03-16T04:31:38.344Z,69.10
2018-03-16T04:36:41.316Z,68.70
2018-03-16T04:41:45.160Z,68.20
2018-03-16T04:46:48.859Z,68.20
2018-03-16T04:51:52.255Z,69.80
2018-03-16T04:56:55.456Z,69.80
2018-03-16T05:01:59.143Z,70.20
2018-03-16T05:07:02.074Z,69.80
2018-03-16T05:12:06.311Z,67.70
2018-03-16T05:17:12.194Z,68.90
2018-03-16T05:22:14.814Z,69.70
2018-03-16T05:27:21.426Z,70.30
2018-03-16T05:32:24.807Z,69.30
2018-03-16T05:37:27.434Z,69.20
2018-03-16T05:42:31.267Z,68.90
2018-03-16T05:47:34.686Z,68.00
2018-03-16T05:52:40.790Z,68.00
2018-03-16T05:57:44.074Z,67.90
2018-03-16T06:02:48.034Z,70.10
2018-03-16T06:07:53.962Z,70.10
2018-03-16T06:12:57.682Z,71.00
2018-03-16T06:18:01.718Z,71.70
2018-03-16T06:23:05.185Z,72.20
2018-03-16T06:28:07.863Z,69.60
2018-03-16T06:33:11.649Z,70.40
2018-03-16T06:38:14.851Z,70.40
2018-03-16T06:43:18.277Z,70.30
2018-03-16T06:48:21.636Z,70.40
2018-03-16T06:53:26.959Z,71.10
2018-03-16T06:58:29.628Z,71.00
2018-03-16T07:03:36.071Z,71.20
2018-03-16T07:08:39.506Z,70.60
2018-03-16T07:13:42.932Z,70.50
2018-03-16T07:18:45.556Z,70.50
2018-03-16T07:23:48.206Z,70.60
2018-03-16T07:28:50.924Z,70.10
2018-03-16T07:33:54.323Z,69.80
2018-03-16T07:38:56.962Z,69.80
2018-03-16T07:43:59.951Z,70.10
2018-03-16T07:49:04.580Z,68.50
2018-03-16T07:54:08.626Z,68.20
2018-03-16T07:59:12.015Z,67.70
2018-03-16T08:04:14.650Z,67.70
2018-03-16T08:09:19.987Z,68.40
2018-03-16T08:14:22.634Z,68.70
2018-03-16T08:19:25.265Z,70.90
2018-03-16T08:24:28.156Z,70.90
2018-03-16T08:29:30.783Z,70.30
2018-03-16T08:34:50.795Z,69.20
2018-03-16T08:39:54.189Z,69.70
2018-03-16T08:45:00.284Z,69.00
2018-03-16T08:50:06.042Z,67.20
2018-03-16T08:55:09.238Z,68.40
2018-03-16T09:00:11.868Z,67.70
2018-03-16T09:05:14.494Z,67.70
2018-03-16T09:10:17.895Z,66.70
2018-03-16T09:15:20.513Z,66.70
2018-03-16T09:20:25.364Z,66.60
2018-03-16T09:25:29.164Z,66.60
2018-03-16T09:30:31.777Z,65.70
2018-03-16T09:35:35.203Z,63.20
2018-03-16T09:40:39.469Z,62.70
2018-03-16T09:45:42.569Z,62.70
2018-03-16T09:50:45.218Z,61.70
2018-03-16T09:55:47.858Z,61.60
2018-03-16T10:00:50.951Z,60.40
2018-03-16T10:05:54.335Z,58.80
2018-03-16T10:10:57.575Z,58.70
2018-03-16T10:16:01.068Z,59.60
2018-03-16T10:21:03.693Z,59.60
2018-03-16T10:26:07.292Z,59.20
2018-03-16T10:31:09.946Z,59.10
2018-03-16T10:36:14.676Z,58.50
2018-03-16T10:41:19.935Z,58.40
2018-03-16T10:46:23.339Z,56.30
2018-03-16T10:51:27.183Z,55.70
2018-03-16T10:56:30.827Z,54.80
2018-03-16T11:01:39.227Z,54.80
2018-03-16T11:12:28.431Z,53.70
2018-03-16T11:17:31.830Z,52.60
2018-03-16T11:22:34.505Z,52.40
2018-03-16T11:27:37.153Z,51.90
2018-03-16T11:32:40.392Z,51.60
2018-03-16T11:37:43.043Z,51.30
2018-03-16T11:42:46.449Z,52.70
2018-03-16T11:47:49.690Z,52.60
2018-03-16T11:52:52.355Z,53.50
2018-03-16T11:57:55.040Z,53.40
2018-03-16T12:02:57.692Z,52.70
2018-03-16T12:08:00.363Z,53.60
2018-03-16T12:13:03.798Z,54.60
2018-03-16T12:18:06.475Z,54.40
2018-03-16T12:23:10.012Z,55.70
2018-03-16T12:28:13.456Z,55.90
2018-03-16T12:33:16.121Z,55.80
2018-03-16T12:38:25.035Z,56.10
2018-03-16T12:43:28.326Z,56.00
2018-03-16T12:48:30.975Z,56.00
2018-03-16T12:53:34.371Z,57.20
2018-03-16T12:58:37.105Z,57.70
2018-03-16T13:03:43.418Z,55.70
2018-03-16T13:08:46.086Z,54.80
2018-03-16T13:13:49.075Z,54.40
2018-03-16T13:18:52.592Z,54.00
2018-03-16T13:23:55.266Z,53.70
2018-03-16T13:28:57.985Z,53.80
2018-03-16T13:34:00.649Z,53.00
2018-03-16T13:39:03.274Z,52.60
2018-03-16T13:44:06.794Z,51.50
2018-03-16T13:49:09.454Z,51.30
2018-03-16T13:54:12.112Z,51.80
2018-03-16T13:59:15.584Z,48.30
2018-03-16T14:04:18.270Z,48.00
2018-03-16T14:09:20.947Z,47.00
2018-03-16T14:14:23.640Z,47.30
2018-03-16T14:19:26.293Z,47.50
2018-03-16T14:24:28.950Z,46.60
2018-03-16T14:29:31.652Z,45.00
2018-03-16T14:34:34.313Z,45.30
2018-03-16T14:39:37.028Z,42.30
2018-03-16T14:44:39.691Z,43.80
2018-03-16T14:49:42.647Z,40.40
2018-03-16T14:54:45.367Z,41.30
2018-03-16T14:59:48.090Z,42.10
2018-03-16T15:04:50.757Z,39.30
2018-03-16T15:09:55.298Z,39.20
2018-03-16T15:14:57.991Z,39.50
2018-03-16T15:20:00.644Z,39.80
2018-03-16T15:25:03.333Z,39.60
2018-03-16T15:30:05.957Z,40.20
2018-03-16T15:35:10.308Z,41.30
2018-03-16T15:40:12.976Z,40.70
2018-03-16T15:45:15.595Z,41.90
2018-03-16T15:50:18.177Z,42.70
2018-03-16T15:55:21.639Z,44.30
2018-03-16T16:00:24.286Z,44.00
2018-03-16T16:05:26.966Z,43.10
2018-03-16T16:10:29.578Z,45.10
2018-03-16T16:15:32.185Z,42.40
2018-03-16T16:20:34.796Z,41.40
2018-03-16T16:25:37.436Z,41.70
2018-03-16T16:30:40.052Z,42.30
2018-03-16T16:35:42.751Z,43.50
2018-03-16T16:40:45.392Z,43.60
2018-03-16T16:45:48.018Z,42.90
2018-03-16T16:50:50.613Z,42.50
2018-03-16T16:55:53.257Z,41.80
2018-03-16T17:00:56.359Z,41.80
2018-03-16T17:05:59.874Z,42.20
2018-03-16T17:11:02.534Z,42.00
2018-03-16T17:16:05.218Z,42.70
2018-03-16T17:21:07.851Z,43.40
2018-03-16T17:26:10.480Z,43.70
2018-03-16T17:31:13.163Z,43.80
2018-03-16T17:36:15.926Z,45.10
2018-03-16T17:41:18.793Z,45.30
2018-03-16T17:46:22.202Z,48.00
2018-03-16T17:51:25.584Z,48.80
2018-03-16T17:56:28.234Z,48.60
2018-03-16T18:01:31.844Z,49.30
2018-03-16T18:06:35.268Z,51.00
2018-03-16T18:11:37.940Z,50.90
2018-03-16T18:16:40.589Z,51.30
2018-03-16T18:21:43.239Z,52.10
2018-03-16T18:26:45.973Z,52.50
2018-03-16T18:31:48.668Z,53.00
2018-03-16T18:36:51.419Z,52.40
2018-03-16T18:41:54.056Z,52.90
2018-03-16T18:46:57.479Z,54.00
2018-03-16T18:52:00.260Z,53.70
2018-03-16T18:57:02.916Z,54.50
2018-03-16T19:02:05.704Z,54.90
2018-03-16T19:07:08.350Z,55.10
2018-03-16T19:12:11.011Z,54.90
2018-03-16T19:17:13.705Z,54.70
2018-03-16T19:22:16.599Z,55.10
2018-03-16T19:27:19.314Z,56.10
2018-03-16T19:32:22.049Z,56.70
2018-03-16T19:37:25.520Z,56.60
2018-03-16T19:42:28.246Z,56.50
2018-03-16T19:47:31.248Z,56.40
2018-03-16T19:52:34.016Z,57.50
2018-03-16T19:57:36.778Z,58.80
2018-03-16T20:02:39.388Z,59.40
2018-03-16T20:07:42.129Z,60.40
2018-03-16T20:12:44.804Z,60.10
2018-03-16T20:17:47.505Z,59.70
2018-03-16T20:22:50.151Z,61.30
2018-03-16T20:27:52.816Z,62.30
2018-03-16T20:32:55.528Z,62.30
2018-03-16T20:37:58.108Z,62.20
2018-03-16T20:43:00.712Z,61.50
2018-03-16T20:48:03.324Z,60.70
2018-03-16T20:53:05.962Z,60.40
2018-03-16T20:58:09.362Z,61.30
2018-03-16T21:03:12.684Z,61.00
2018-03-16T21:08:15.307Z,61.20
2018-03-16T21:13:18.692Z,62.70
2018-03-16T21:18:21.299Z,62.50
2018-03-16T21:23:24.783Z,62.80
2018-03-16T21:28:27.425Z,62.50
2018-03-16T21:33:31.349Z,63.70
2018-03-16T21:38:35.429Z,62.90
2018-03-16T21:43:38.065Z,63.90
2018-03-16T21:48:40.674Z,63.70
2018-03-16T21:53:44.741Z,62.50
2018-03-16T21:58:47.402Z,62.30
2018-03-16T22:03:50.767Z,63.30
2018-03-16T22:08:53.429Z,63.10
2018-03-16T22:13:56.835Z,63.80
2018-03-16T22:19:00.217Z,63.40
2018-03-16T22:24:02.868Z,63.00
2018-03-16T22:29:05.488Z,63.00
2018-03-16T22:34:08.115Z,63.90
2018-03-16T22:39:10.746Z,63.90
2018-03-16T22:44:13.357Z,64.50
2018-03-16T22:49:15.966Z,65.30
2018-03-16T22:54:18.576Z,64.20
2018-03-16T22:59:21.181Z,64.10
2018-03-16T23:04:23.830Z,65.10
2018-03-16T23:09:27.295Z,66.10
2018-03-16T23:14:29.908Z,65.80
2018-03-16T23:19:32.543Z,66.70
2018-03-16T23:24:35.920Z,65.90
2018-03-16T23:29:38.532Z,65.60
2018-03-16T23:34:45.681Z,65.60
2018-03-16T23:39:48.276Z,65.60
2018-03-16T23:44:50.937Z,66.20
2018-03-16T23:49:53.537Z,67.00
2018-03-16T23:54:56.153Z,65.10
2018-03-16T23:59:59.536Z,66.30
